sensor_id;sensor_type;location;lat;lon;timestamp;P1;durP1;ratioP1;P2;durP2;ratioP2
27833;SDS011;15200;50.570;7.244;2023-07-13T00:00:02;1.77;;;0.90;;
27833;SDS011;15200;50.570;7.244;2023-07-13T00:02:31;2.20;;;0.90;;
27833;SDS011;15200;50.570;7.244;2023-07-13T00:04:59;4.80;;;1.00;;
27833;SDS011;15200;50.570;7.244;2023-07-13T00:07:26;4.78;;;1.22;;
27833;SDS011;15200;50.570;7.244;2023-07-13T00:09:53;5.22;;;1.10;;
27833;SDS011;15200;50.570;7.244;2023-07-13T00:12:29;3.55;;;1.20;;
27833;SDS011;15200;50.570;7.244;2023-07-13T00:14:52;5.03;;;1.10;;
27833;SDS011;15200;50.570;7.244;2023-07-13T00:17:19;4.47;;;1.70;;
27833;SDS011;15200;50.570;7.244;2023-07-13T00:19:47;3.58;;;1.10;;
27833;SDS011;15200;50.570;7.244;2023-07-13T00:22:14;5.17;;;1.30;;
27833;SDS011;15200;50.570;7.244;2023-07-13T00:24:42;4.53;;;1.10;;
27833;SDS011;15200;50.570;7.244;2023-07-13T00:27:09;4.95;;;1.20;;
27833;SDS011;15200;50.570;7.244;2023-07-13T00:29:36;1.80;;;1.00;;
27833;SDS011;15200;50.570;7.244;2023-07-13T00:32:04;3.15;;;0.98;;
27833;SDS011;15200;50.570;7.244;2023-07-13T00:34:32;5.80;;;1.00;;
27833;SDS011;15200;50.570;7.244;2023-07-13T00:36:59;4.33;;;1.12;;
27833;SDS011;15200;50.570;7.244;2023-07-13T00:39:27;4.50;;;1.32;;
27833;SDS011;15200;50.570;7.244;2023-07-13T00:41:54;4.87;;;1.32;;
27833;SDS011;15200;50.570;7.244;2023-07-13T00:44:21;3.27;;;1.10;;
27833;SDS011;15200;50.570;7.244;2023-07-13T00:46:50;2.27;;;1.02;;
27833;SDS011;15200;50.570;7.244;2023-07-13T00:49:20;4.10;;;1.25;;
27833;SDS011;15200;50.570;7.244;2023-07-13T00:54:21;2.27;;;0.82;;
27833;SDS011;15200;50.570;7.244;2023-07-13T00:56:48;6.10;;;1.37;;
27833;SDS011;15200;50.570;7.244;2023-07-13T00:59:17;2.72;;;1.00;;
27833;SDS011;15200;50.570;7.244;2023-07-13T01:01:45;2.87;;;1.00;;
27833;SDS011;15200;50.570;7.244;2023-07-13T01:04:13;3.58;;;0.90;;
27833;SDS011;15200;50.570;7.244;2023-07-13T01:06:40;2.00;;;1.07;;
27833;SDS011;15200;50.570;7.244;2023-07-13T01:09:11;2.90;;;0.90;;
27833;SDS011;15200;50.570;7.244;2023-07-13T01:11:39;3.72;;;1.20;;
27833;SDS011;15200;50.570;7.244;2023-07-13T01:14:07;2.00;;;0.98;;
27833;SDS011;15200;50.570;7.244;2023-07-13T01:16:36;3.05;;;1.00;;
27833;SDS011;15200;50.570;7.244;2023-07-13T01:21:33;2.60;;;0.88;;
27833;SDS011;15200;50.570;7.244;2023-07-13T01:24:00;1.22;;;0.75;;
27833;SDS011;15200;50.570;7.244;2023-07-13T01:26:28;3.72;;;1.17;;
27833;SDS011;15200;50.570;7.244;2023-07-13T01:28:55;5.45;;;0.88;;
27833;SDS011;15200;50.570;7.244;2023-07-13T01:31:23;1.80;;;0.93;;
27833;SDS011;15200;50.570;7.244;2023-07-13T01:33:50;2.52;;;0.93;;
27833;SDS011;15200;50.570;7.244;2023-07-13T01:36:18;4.08;;;1.07;;
27833;SDS011;15200;50.570;7.244;2023-07-13T01:38:47;2.15;;;0.68;;
27833;SDS011;15200;50.570;7.244;2023-07-13T01:41:14;3.92;;;1.12;;
27833;SDS011;15200;50.570;7.244;2023-07-13T01:43:42;3.33;;;1.17;;
27833;SDS011;15200;50.570;7.244;2023-07-13T01:46:09;2.72;;;1.00;;
27833;SDS011;15200;50.570;7.244;2023-07-13T01:48:36;2.83;;;1.02;;
27833;SDS011;15200;50.570;7.244;2023-07-13T01:51:04;2.17;;;1.00;;
27833;SDS011;15200;50.570;7.244;2023-07-13T01:53:34;3.33;;;1.00;;
27833;SDS011;15200;50.570;7.244;2023-07-13T01:56:02;3.77;;;1.15;;
27833;SDS011;15200;50.570;7.244;2023-07-13T01:58:29;2.45;;;0.80;;
27833;SDS011;15200;50.570;7.244;2023-07-13T02:00:56;5.20;;;0.98;;
27833;SDS011;15200;50.570;7.244;2023-07-13T02:03:23;3.10;;;0.75;;
27833;SDS011;15200;50.570;7.244;2023-07-13T02:05:51;2.52;;;0.95;;
27833;SDS011;15200;50.570;7.244;2023-07-13T02:08:18;2.83;;;1.12;;
27833;SDS011;15200;50.570;7.244;2023-07-13T02:10:46;3.00;;;1.10;;
27833;SDS011;15200;50.570;7.244;2023-07-13T02:13:13;2.47;;;1.10;;
27833;SDS011;15200;50.570;7.244;2023-07-13T02:15:40;3.12;;;1.10;;
27833;SDS011;15200;50.570;7.244;2023-07-13T02:18:08;3.50;;;1.07;;
27833;SDS011;15200;50.570;7.244;2023-07-13T02:20:35;3.08;;;1.10;;
27833;SDS011;15200;50.570;7.244;2023-07-13T02:23:02;2.58;;;1.05;;
27833;SDS011;15200;50.570;7.244;2023-07-13T02:25:30;3.10;;;1.00;;
27833;SDS011;15200;50.570;7.244;2023-07-13T02:27:57;3.08;;;0.80;;
27833;SDS011;15200;50.570;7.244;2023-07-13T02:30:24;5.80;;;1.00;;
27833;SDS011;15200;50.570;7.244;2023-07-13T02:32:51;3.33;;;1.02;;
27833;SDS011;15200;50.570;7.244;2023-07-13T02:35:19;5.95;;;1.20;;
27833;SDS011;15200;50.570;7.244;2023-07-13T02:37:46;1.75;;;0.88;;
27833;SDS011;15200;50.570;7.244;2023-07-13T02:40:13;7.12;;;1.57;;
27833;SDS011;15200;50.570;7.244;2023-07-13T02:42:41;2.55;;;1.10;;
27833;SDS011;15200;50.570;7.244;2023-07-13T02:45:08;2.98;;;1.27;;
27833;SDS011;15200;50.570;7.244;2023-07-13T02:47:36;2.65;;;1.00;;
27833;SDS011;15200;50.570;7.244;2023-07-13T02:50:03;2.92;;;1.20;;
27833;SDS011;15200;50.570;7.244;2023-07-13T02:52:31;5.92;;;1.40;;
27833;SDS011;15200;50.570;7.244;2023-07-13T02:54:58;3.98;;;1.20;;
27833;SDS011;15200;50.570;7.244;2023-07-13T02:57:25;2.83;;;1.07;;
27833;SDS011;15200;50.570;7.244;2023-07-13T02:59:54;3.30;;;1.40;;
27833;SDS011;15200;50.570;7.244;2023-07-13T03:02:21;5.28;;;1.30;;
27833;SDS011;15200;50.570;7.244;2023-07-13T03:04:49;3.22;;;1.30;;
27833;SDS011;15200;50.570;7.244;2023-07-13T03:07:16;5.83;;;1.40;;
27833;SDS011;15200;50.570;7.244;2023-07-13T03:09:44;2.10;;;1.10;;
27833;SDS011;15200;50.570;7.244;2023-07-13T03:12:11;7.58;;;1.60;;
27833;SDS011;15200;50.570;7.244;2023-07-13T03:14:38;3.15;;;1.30;;
27833;SDS011;15200;50.570;7.244;2023-07-13T03:17:06;5.10;;;1.17;;
27833;SDS011;15200;50.570;7.244;2023-07-13T03:19:33;3.10;;;1.32;;
27833;SDS011;15200;50.570;7.244;2023-07-13T03:22:00;3.55;;;1.05;;
27833;SDS011;15200;50.570;7.244;2023-07-13T03:24:27;1.95;;;0.98;;
27833;SDS011;15200;50.570;7.244;2023-07-13T03:26:55;3.35;;;1.30;;
27833;SDS011;15200;50.570;7.244;2023-07-13T03:29:22;2.05;;;1.15;;
27833;SDS011;15200;50.570;7.244;2023-07-13T03:31:49;2.00;;;1.02;;
27833;SDS011;15200;50.570;7.244;2023-07-13T03:34:17;3.75;;;1.15;;
27833;SDS011;15200;50.570;7.244;2023-07-13T03:36:44;5.08;;;1.12;;
27833;SDS011;15200;50.570;7.244;2023-07-13T03:39:11;5.35;;;1.40;;
27833;SDS011;15200;50.570;7.244;2023-07-13T03:41:39;2.45;;;1.22;;
27833;SDS011;15200;50.570;7.244;2023-07-13T03:44:06;6.58;;;1.20;;
27833;SDS011;15200;50.570;7.244;2023-07-13T03:46:33;2.10;;;0.98;;
27833;SDS011;15200;50.570;7.244;2023-07-13T03:49:01;5.05;;;1.10;;
27833;SDS011;15200;50.570;7.244;2023-07-13T03:51:28;2.25;;;1.15;;
27833;SDS011;15200;50.570;7.244;2023-07-13T03:53:56;2.65;;;1.20;;
27833;SDS011;15200;50.570;7.244;2023-07-13T03:56:23;6.95;;;1.40;;
27833;SDS011;15200;50.570;7.244;2023-07-13T03:58:51;3.35;;;1.45;;
27833;SDS011;15200;50.570;7.244;2023-07-13T04:01:19;8.43;;;1.47;;
27833;SDS011;15200;50.570;7.244;2023-07-13T04:03:47;2.25;;;1.40;;
27833;SDS011;15200;50.570;7.244;2023-07-13T04:06:16;8.73;;;1.80;;
27833;SDS011;15200;50.570;7.244;2023-07-13T04:08:45;9.43;;;1.50;;
27833;SDS011;15200;50.570;7.244;2023-07-13T04:11:12;3.70;;;1.17;;
27833;SDS011;15200;50.570;7.244;2023-07-13T04:13:39;4.47;;;1.47;;
27833;SDS011;15200;50.570;7.244;2023-07-13T04:16:07;4.67;;;1.40;;
27833;SDS011;15200;50.570;7.244;2023-07-13T04:18:36;6.62;;;1.30;;
27833;SDS011;15200;50.570;7.244;2023-07-13T04:21:03;5.35;;;1.30;;
27833;SDS011;15200;50.570;7.244;2023-07-13T04:23:30;8.23;;;1.02;;
27833;SDS011;15200;50.570;7.244;2023-07-13T04:25:58;3.77;;;1.12;;
27833;SDS011;15200;50.570;7.244;2023-07-13T04:28:25;1.92;;;1.10;;
27833;SDS011;15200;50.570;7.244;2023-07-13T04:30:53;5.83;;;1.20;;
27833;SDS011;15200;50.570;7.244;2023-07-13T04:33:20;5.83;;;1.27;;
27833;SDS011;15200;50.570;7.244;2023-07-13T04:35:51;2.47;;;1.07;;
27833;SDS011;15200;50.570;7.244;2023-07-13T04:38:26;2.40;;;1.35;;
27833;SDS011;15200;50.570;7.244;2023-07-13T04:40:59;2.45;;;1.10;;
27833;SDS011;15200;50.570;7.244;2023-07-13T04:43:23;4.53;;;1.22;;
27833;SDS011;15200;50.570;7.244;2023-07-13T04:45:51;3.15;;;1.40;;
27833;SDS011;15200;50.570;7.244;2023-07-13T04:48:18;2.77;;;1.10;;
27833;SDS011;15200;50.570;7.244;2023-07-13T04:50:46;5.58;;;1.30;;
27833;SDS011;15200;50.570;7.244;2023-07-13T04:53:13;4.97;;;1.30;;
27833;SDS011;15200;50.570;7.244;2023-07-13T04:55:41;5.78;;;1.70;;
27833;SDS011;15200;50.570;7.244;2023-07-13T04:58:08;4.30;;;1.37;;
27833;SDS011;15200;50.570;7.244;2023-07-13T05:00:35;8.88;;;1.30;;
27833;SDS011;15200;50.570;7.244;2023-07-13T05:03:03;6.92;;;1.10;;
27833;SDS011;15200;50.570;7.244;2023-07-13T05:05:30;5.15;;;1.32;;
27833;SDS011;15200;50.570;7.244;2023-07-13T05:07:58;1.77;;;1.20;;
27833;SDS011;15200;50.570;7.244;2023-07-13T05:10:25;1.80;;;1.12;;
27833;SDS011;15200;50.570;7.244;2023-07-13T05:12:52;4.58;;;1.35;;
27833;SDS011;15200;50.570;7.244;2023-07-13T05:15:21;4.00;;;1.05;;
27833;SDS011;15200;50.570;7.244;2023-07-13T05:17:48;5.33;;;1.30;;
27833;SDS011;15200;50.570;7.244;2023-07-13T05:20:17;4.42;;;1.20;;
27833;SDS011;15200;50.570;7.244;2023-07-13T05:22:45;3.27;;;1.62;;
27833;SDS011;15200;50.570;7.244;2023-07-13T05:25:16;5.53;;;1.37;;
27833;SDS011;15200;50.570;7.244;2023-07-13T05:27:43;9.48;;;1.52;;
27833;SDS011;15200;50.570;7.244;2023-07-13T05:30:12;3.10;;;1.07;;
27833;SDS011;15200;50.570;7.244;2023-07-13T05:32:39;4.60;;;1.60;;
27833;SDS011;15200;50.570;7.244;2023-07-13T05:35:07;3.55;;;1.42;;
27833;SDS011;15200;50.570;7.244;2023-07-13T05:37:34;2.35;;;1.52;;
27833;SDS011;15200;50.570;7.244;2023-07-13T05:40:02;3.22;;;1.30;;
27833;SDS011;15200;50.570;7.244;2023-07-13T05:42:30;2.10;;;1.40;;
27833;SDS011;15200;50.570;7.244;2023-07-13T05:44:57;5.37;;;1.07;;
27833;SDS011;15200;50.570;7.244;2023-07-13T05:47:24;6.92;;;1.50;;
27833;SDS011;15200;50.570;7.244;2023-07-13T05:49:52;4.17;;;1.55;;
27833;SDS011;15200;50.570;7.244;2023-07-13T05:52:19;3.27;;;1.32;;
27833;SDS011;15200;50.570;7.244;2023-07-13T05:54:47;4.72;;;1.47;;
27833;SDS011;15200;50.570;7.244;2023-07-13T05:57:14;2.22;;;0.90;;
27833;SDS011;15200;50.570;7.244;2023-07-13T05:59:41;3.37;;;1.35;;
27833;SDS011;15200;50.570;7.244;2023-07-13T06:02:09;4.83;;;1.05;;
27833;SDS011;15200;50.570;7.244;2023-07-13T06:04:37;3.50;;;1.22;;
27833;SDS011;15200;50.570;7.244;2023-07-13T06:07:04;3.45;;;1.07;;
27833;SDS011;15200;50.570;7.244;2023-07-13T06:09:32;5.37;;;0.90;;
27833;SDS011;15200;50.570;7.244;2023-07-13T06:11:59;3.40;;;1.22;;
27833;SDS011;15200;50.570;7.244;2023-07-13T06:14:26;4.30;;;1.17;;
27833;SDS011;15200;50.570;7.244;2023-07-13T06:16:53;4.35;;;0.93;;
27833;SDS011;15200;50.570;7.244;2023-07-13T06:19:21;4.97;;;0.78;;
27833;SDS011;15200;50.570;7.244;2023-07-13T06:21:48;2.58;;;0.78;;
27833;SDS011;15200;50.570;7.244;2023-07-13T06:24:15;3.92;;;0.95;;
27833;SDS011;15200;50.570;7.244;2023-07-13T06:26:43;3.67;;;0.90;;
27833;SDS011;15200;50.570;7.244;2023-07-13T06:29:10;2.87;;;0.80;;
27833;SDS011;15200;50.570;7.244;2023-07-13T06:31:37;3.35;;;0.95;;
27833;SDS011;15200;50.570;7.244;2023-07-13T06:34:05;4.87;;;1.20;;
27833;SDS011;15200;50.570;7.244;2023-07-13T06:36:32;1.95;;;0.90;;
27833;SDS011;15200;50.570;7.244;2023-07-13T06:38:59;4.55;;;1.00;;
27833;SDS011;15200;50.570;7.244;2023-07-13T06:41:27;3.98;;;1.02;;
27833;SDS011;15200;50.570;7.244;2023-07-13T06:43:54;4.53;;;1.07;;
27833;SDS011;15200;50.570;7.244;2023-07-13T06:46:21;2.83;;;0.78;;
27833;SDS011;15200;50.570;7.244;2023-07-13T06:48:49;2.65;;;0.80;;
27833;SDS011;15200;50.570;7.244;2023-07-13T06:51:16;5.28;;;0.80;;
27833;SDS011;15200;50.570;7.244;2023-07-13T06:53:44;7.53;;;1.20;;
27833;SDS011;15200;50.570;7.244;2023-07-13T06:56:11;3.20;;;1.00;;
27833;SDS011;15200;50.570;7.244;2023-07-13T06:58:39;3.02;;;0.70;;
27833;SDS011;15200;50.570;7.244;2023-07-13T07:01:06;2.67;;;0.82;;
27833;SDS011;15200;50.570;7.244;2023-07-13T07:03:34;3.87;;;0.80;;
27833;SDS011;15200;50.570;7.244;2023-07-13T07:06:02;2.90;;;0.93;;
27833;SDS011;15200;50.570;7.244;2023-07-13T07:08:30;1.67;;;0.70;;
27833;SDS011;15200;50.570;7.244;2023-07-13T07:10:57;4.17;;;1.30;;
27833;SDS011;15200;50.570;7.244;2023-07-13T07:13:24;5.00;;;1.05;;
27833;SDS011;15200;50.570;7.244;2023-07-13T07:15:53;2.75;;;0.70;;
27833;SDS011;15200;50.570;7.244;2023-07-13T07:18:21;1.47;;;0.68;;
27833;SDS011;15200;50.570;7.244;2023-07-13T07:20:48;2.33;;;0.75;;
27833;SDS011;15200;50.570;7.244;2023-07-13T07:23:16;2.72;;;0.80;;
27833;SDS011;15200;50.570;7.244;2023-07-13T07:25:43;1.80;;;0.62;;
27833;SDS011;15200;50.570;7.244;2023-07-13T07:28:11;3.77;;;1.05;;
27833;SDS011;15200;50.570;7.244;2023-07-13T07:30:41;1.87;;;0.93;;
27833;SDS011;15200;50.570;7.244;2023-07-13T07:33:07;2.00;;;0.72;;
27833;SDS011;15200;50.570;7.244;2023-07-13T07:35:34;4.97;;;0.98;;
27833;SDS011;15200;50.570;7.244;2023-07-13T07:38:02;4.92;;;1.07;;
27833;SDS011;15200;50.570;7.244;2023-07-13T07:40:29;3.52;;;1.02;;
27833;SDS011;15200;50.570;7.244;2023-07-13T07:42:57;2.45;;;0.88;;
27833;SDS011;15200;50.570;7.244;2023-07-13T07:45:26;2.72;;;0.60;;
27833;SDS011;15200;50.570;7.244;2023-07-13T07:47:53;2.83;;;1.07;;
27833;SDS011;15200;50.570;7.244;2023-07-13T07:50:22;2.75;;;0.93;;
27833;SDS011;15200;50.570;7.244;2023-07-13T07:52:50;3.92;;;0.95;;
27833;SDS011;15200;50.570;7.244;2023-07-13T07:55:17;3.55;;;0.90;;
27833;SDS011;15200;50.570;7.244;2023-07-13T07:57:45;3.30;;;0.78;;
27833;SDS011;15200;50.570;7.244;2023-07-13T08:00:12;1.77;;;0.80;;
27833;SDS011;15200;50.570;7.244;2023-07-13T08:02:40;3.70;;;1.00;;
27833;SDS011;15200;50.570;7.244;2023-07-13T08:05:07;2.17;;;1.00;;
27833;SDS011;15200;50.570;7.244;2023-07-13T08:07:36;1.92;;;0.85;;
27833;SDS011;15200;50.570;7.244;2023-07-13T08:10:04;6.35;;;1.02;;
27833;SDS011;15200;50.570;7.244;2023-07-13T08:12:38;2.37;;;0.80;;
27833;SDS011;15200;50.570;7.244;2023-07-13T08:15:06;1.65;;;0.80;;
27833;SDS011;15200;50.570;7.244;2023-07-13T08:17:34;2.65;;;0.90;;
27833;SDS011;15200;50.570;7.244;2023-07-13T08:20:01;4.67;;;0.98;;
27833;SDS011;15200;50.570;7.244;2023-07-13T08:22:28;4.40;;;0.78;;
27833;SDS011;15200;50.570;7.244;2023-07-13T08:24:56;2.65;;;0.55;;
27833;SDS011;15200;50.570;7.244;2023-07-13T08:27:23;3.25;;;0.80;;
27833;SDS011;15200;50.570;7.244;2023-07-13T08:29:52;2.58;;;1.10;;
27833;SDS011;15200;50.570;7.244;2023-07-13T08:32:20;2.40;;;0.90;;
27833;SDS011;15200;50.570;7.244;2023-07-13T08:34:50;2.90;;;1.07;;
27833;SDS011;15200;50.570;7.244;2023-07-13T08:37:17;1.65;;;0.80;;
27833;SDS011;15200;50.570;7.244;2023-07-13T08:39:45;2.12;;;0.70;;
27833;SDS011;15200;50.570;7.244;2023-07-13T08:42:15;2.33;;;0.90;;
27833;SDS011;15200;50.570;7.244;2023-07-13T08:47:23;1.98;;;0.70;;
27833;SDS011;15200;50.570;7.244;2023-07-13T08:49:51;1.45;;;0.85;;
27833;SDS011;15200;50.570;7.244;2023-07-13T08:52:36;3.33;;;0.90;;
27833;SDS011;15200;50.570;7.244;2023-07-13T08:55:05;2.30;;;0.80;;
27833;SDS011;15200;50.570;7.244;2023-07-13T08:57:31;2.25;;;1.05;;
27833;SDS011;15200;50.570;7.244;2023-07-13T08:59:59;1.37;;;0.72;;
27833;SDS011;15200;50.570;7.244;2023-07-13T09:02:45;2.70;;;0.80;;
27833;SDS011;15200;50.570;7.244;2023-07-13T09:05:17;2.83;;;0.80;;
27833;SDS011;15200;50.570;7.244;2023-07-13T09:07:52;3.37;;;0.78;;
27833;SDS011;15200;50.570;7.244;2023-07-13T09:10:18;2.50;;;0.88;;
27833;SDS011;15200;50.570;7.244;2023-07-13T09:12:51;2.58;;;0.78;;
27833;SDS011;15200;50.570;7.244;2023-07-13T09:17:50;2.17;;;0.72;;
27833;SDS011;15200;50.570;7.244;2023-07-13T09:20:21;3.22;;;0.80;;
27833;SDS011;15200;50.570;7.244;2023-07-13T09:22:47;0.95;;;0.60;;
27833;SDS011;15200;50.570;7.244;2023-07-13T09:25:22;3.47;;;0.60;;
27833;SDS011;15200;50.570;7.244;2023-07-13T09:27:47;1.07;;;0.68;;
27833;SDS011;15200;50.570;7.244;2023-07-13T09:32:47;1.82;;;0.70;;
27833;SDS011;15200;50.570;7.244;2023-07-13T09:35:15;3.85;;;0.70;;
27833;SDS011;15200;50.570;7.244;2023-07-13T09:37:43;3.98;;;0.62;;
27833;SDS011;15200;50.570;7.244;2023-07-13T09:40:14;1.57;;;0.70;;
27833;SDS011;15200;50.570;7.244;2023-07-13T09:42:40;1.75;;;0.70;;
27833;SDS011;15200;50.570;7.244;2023-07-13T09:45:08;1.55;;;0.60;;
27833;SDS011;15200;50.570;7.244;2023-07-13T09:47:39;1.62;;;0.62;;
27833;SDS011;15200;50.570;7.244;2023-07-13T09:50:08;3.05;;;0.85;;
27833;SDS011;15200;50.570;7.244;2023-07-13T09:52:43;1.65;;;0.50;;
27833;SDS011;15200;50.570;7.244;2023-07-13T09:55:24;4.17;;;0.93;;
27833;SDS011;15200;50.570;7.244;2023-07-13T09:57:51;1.52;;;0.45;;
27833;SDS011;15200;50.570;7.244;2023-07-13T10:00:27;3.12;;;0.60;;
27833;SDS011;15200;50.570;7.244;2023-07-13T10:03:01;2.80;;;0.70;;
27833;SDS011;15200;50.570;7.244;2023-07-13T10:05:37;2.30;;;0.60;;
27833;SDS011;15200;50.570;7.244;2023-07-13T10:07:59;3.95;;;0.93;;
27833;SDS011;15200;50.570;7.244;2023-07-13T10:10:27;1.05;;;0.70;;
27833;SDS011;15200;50.570;7.244;2023-07-13T10:12:54;1.98;;;0.72;;
27833;SDS011;15200;50.570;7.244;2023-07-13T10:15:22;3.05;;;0.70;;
27833;SDS011;15200;50.570;7.244;2023-07-13T10:17:51;1.65;;;0.60;;
27833;SDS011;15200;50.570;7.244;2023-07-13T10:20:19;1.65;;;1.05;;
27833;SDS011;15200;50.570;7.244;2023-07-13T10:23:03;2.15;;;0.88;;
27833;SDS011;15200;50.570;7.244;2023-07-13T10:25:32;1.60;;;0.70;;
27833;SDS011;15200;50.570;7.244;2023-07-13T10:28:05;1.17;;;0.70;;
27833;SDS011;15200;50.570;7.244;2023-07-13T10:30:38;2.20;;;0.72;;
27833;SDS011;15200;50.570;7.244;2023-07-13T10:33:02;0.93;;;0.55;;
27833;SDS011;15200;50.570;7.244;2023-07-13T10:35:29;1.62;;;0.60;;
27833;SDS011;15200;50.570;7.244;2023-07-13T10:37:59;1.57;;;0.55;;
27833;SDS011;15200;50.570;7.244;2023-07-13T10:40:29;2.05;;;0.68;;
27833;SDS011;15200;50.570;7.244;2023-07-13T10:42:56;1.75;;;0.57;;
27833;SDS011;15200;50.570;7.244;2023-07-13T10:45:24;1.95;;;0.85;;
27833;SDS011;15200;50.570;7.244;2023-07-13T10:47:54;2.02;;;0.82;;
27833;SDS011;15200;50.570;7.244;2023-07-13T10:50:23;4.22;;;0.80;;
27833;SDS011;15200;50.570;7.244;2023-07-13T10:52:54;2.50;;;0.80;;
27833;SDS011;15200;50.570;7.244;2023-07-13T10:55:35;2.05;;;0.70;;
27833;SDS011;15200;50.570;7.244;2023-07-13T10:58:50;1.42;;;0.50;;
27833;SDS011;15200;50.570;7.244;2023-07-13T11:00:32;1.10;;;0.50;;
27833;SDS011;15200;50.570;7.244;2023-07-13T11:03:00;1.85;;;0.93;;
27833;SDS011;15200;50.570;7.244;2023-07-13T11:05:32;1.98;;;0.68;;
27833;SDS011;15200;50.570;7.244;2023-07-13T11:08:51;1.65;;;0.85;;
27833;SDS011;15200;50.570;7.244;2023-07-13T11:10:46;3.05;;;0.80;;
27833;SDS011;15200;50.570;7.244;2023-07-13T11:13:28;2.37;;;0.60;;
27833;SDS011;15200;50.570;7.244;2023-07-13T11:15:45;3.05;;;0.60;;
27833;SDS011;15200;50.570;7.244;2023-07-13T11:18:23;0.98;;;0.47;;
27833;SDS011;15200;50.570;7.244;2023-07-13T11:20:42;1.45;;;0.47;;
27833;SDS011;15200;50.570;7.244;2023-07-13T11:23:17;0.70;;;0.47;;
27833;SDS011;15200;50.570;7.244;2023-07-13T11:25:38;1.87;;;0.45;;
27833;SDS011;15200;50.570;7.244;2023-07-13T11:30:46;4.30;;;0.60;;
27833;SDS011;15200;50.570;7.244;2023-07-13T11:33:14;2.35;;;0.70;;
27833;SDS011;15200;50.570;7.244;2023-07-13T11:41:00;2.27;;;0.80;;
27833;SDS011;15200;50.570;7.244;2023-07-13T11:43:29;3.20;;;0.75;;
27833;SDS011;15200;50.570;7.244;2023-07-13T11:45:56;1.37;;;0.60;;
27833;SDS011;15200;50.570;7.244;2023-07-13T11:48:25;5.03;;;0.80;;
27833;SDS011;15200;50.570;7.244;2023-07-13T11:50:58;1.02;;;0.62;;
27833;SDS011;15200;50.570;7.244;2023-07-13T11:53:26;2.40;;;0.88;;
27833;SDS011;15200;50.570;7.244;2023-07-13T11:55:54;2.50;;;0.70;;
27833;SDS011;15200;50.570;7.244;2023-07-13T11:58:23;1.65;;;0.72;;
27833;SDS011;15200;50.570;7.244;2023-07-13T12:00:50;2.22;;;0.70;;
27833;SDS011;15200;50.570;7.244;2023-07-13T12:03:21;3.55;;;0.50;;
27833;SDS011;15200;50.570;7.244;2023-07-13T12:06:00;1.30;;;0.75;;
27833;SDS011;15200;50.570;7.244;2023-07-13T12:08:26;0.78;;;0.60;;
27833;SDS011;15200;50.570;7.244;2023-07-13T12:11:00;3.00;;;0.78;;
27833;SDS011;15200;50.570;7.244;2023-07-13T12:13:27;0.57;;;0.55;;
27833;SDS011;15200;50.570;7.244;2023-07-13T12:15:57;2.65;;;0.90;;
27833;SDS011;15200;50.570;7.244;2023-07-13T12:18:29;2.02;;;0.80;;
27833;SDS011;15200;50.570;7.244;2023-07-13T12:20:55;0.93;;;0.60;;
27833;SDS011;15200;50.570;7.244;2023-07-13T12:23:29;2.37;;;0.82;;
27833;SDS011;15200;50.570;7.244;2023-07-13T12:25:58;3.30;;;0.70;;
27833;SDS011;15200;50.570;7.244;2023-07-13T12:28:37;1.95;;;0.62;;
27833;SDS011;15200;50.570;7.244;2023-07-13T12:31:01;3.85;;;0.80;;
27833;SDS011;15200;50.570;7.244;2023-07-13T12:33:29;0.57;;;0.42;;
27833;SDS011;15200;50.570;7.244;2023-07-13T12:36:03;2.15;;;0.80;;
27833;SDS011;15200;50.570;7.244;2023-07-13T12:38:28;3.92;;;0.70;;
27833;SDS011;15200;50.570;7.244;2023-07-13T12:40:57;2.40;;;0.72;;
27833;SDS011;15200;50.570;7.244;2023-07-13T12:43:25;1.40;;;0.62;;
27833;SDS011;15200;50.570;7.244;2023-07-13T12:46:03;1.95;;;0.70;;
27833;SDS011;15200;50.570;7.244;2023-07-13T12:48:23;3.33;;;0.78;;
27833;SDS011;15200;50.570;7.244;2023-07-13T12:50:53;3.67;;;0.68;;
27833;SDS011;15200;50.570;7.244;2023-07-13T12:53:21;2.25;;;0.65;;
27833;SDS011;15200;50.570;7.244;2023-07-13T12:56:01;3.95;;;0.62;;
27833;SDS011;15200;50.570;7.244;2023-07-13T12:58:57;2.72;;;0.70;;
27833;SDS011;15200;50.570;7.244;2023-07-13T13:00:57;3.25;;;0.75;;
27833;SDS011;15200;50.570;7.244;2023-07-13T13:03:32;3.17;;;1.00;;
27833;SDS011;15200;50.570;7.244;2023-07-13T13:06:00;1.70;;;0.80;;
27833;SDS011;15200;50.570;7.244;2023-07-13T13:08:29;2.83;;;0.88;;
27833;SDS011;15200;50.570;7.244;2023-07-13T13:10:57;2.27;;;0.80;;
27833;SDS011;15200;50.570;7.244;2023-07-13T13:13:24;2.42;;;0.70;;
27833;SDS011;15200;50.570;7.244;2023-07-13T13:15:52;2.37;;;0.78;;
27833;SDS011;15200;50.570;7.244;2023-07-13T13:18:20;2.33;;;0.75;;
27833;SDS011;15200;50.570;7.244;2023-07-13T13:20:49;1.47;;;0.90;;
27833;SDS011;15200;50.570;7.244;2023-07-13T13:23:18;1.62;;;0.70;;
27833;SDS011;15200;50.570;7.244;2023-07-13T13:25:46;0.70;;;0.70;;
27833;SDS011;15200;50.570;7.244;2023-07-13T13:28:15;2.50;;;0.65;;
27833;SDS011;15200;50.570;7.244;2023-07-13T13:30:44;1.80;;;0.90;;
27833;SDS011;15200;50.570;7.244;2023-07-13T13:33:14;1.42;;;0.60;;
27833;SDS011;15200;50.570;7.244;2023-07-13T13:35:42;3.02;;;0.90;;
27833;SDS011;15200;50.570;7.244;2023-07-13T13:38:18;0.85;;;0.75;;
27833;SDS011;15200;50.570;7.244;2023-07-13T13:40:42;3.10;;;0.80;;
27833;SDS011;15200;50.570;7.244;2023-07-13T13:43:22;9.60;;;1.10;;
27833;SDS011;15200;50.570;7.244;2023-07-13T13:45:47;6.50;;;1.22;;
27833;SDS011;15200;50.570;7.244;2023-07-13T13:48:15;2.75;;;0.65;;
27833;SDS011;15200;50.570;7.244;2023-07-13T13:50:43;5.17;;;1.45;;
27833;SDS011;15200;50.570;7.244;2023-07-13T13:53:11;4.03;;;0.93;;
27833;SDS011;15200;50.570;7.244;2023-07-13T13:55:40;2.20;;;0.80;;
27833;SDS011;15200;50.570;7.244;2023-07-13T13:58:08;1.70;;;0.70;;
27833;SDS011;15200;50.570;7.244;2023-07-13T14:00:38;1.85;;;0.82;;
27833;SDS011;15200;50.570;7.244;2023-07-13T14:03:08;2.05;;;0.70;;
27833;SDS011;15200;50.570;7.244;2023-07-13T14:05:35;1.55;;;0.70;;
27833;SDS011;15200;50.570;7.244;2023-07-13T14:08:02;5.90;;;1.07;;
27833;SDS011;15200;50.570;7.244;2023-07-13T14:10:29;5.20;;;0.93;;
27833;SDS011;15200;50.570;7.244;2023-07-13T14:12:57;1.45;;;0.78;;
27833;SDS011;15200;50.570;7.244;2023-07-13T14:15:29;2.67;;;0.80;;
27833;SDS011;15200;50.570;7.244;2023-07-13T14:17:54;4.03;;;1.00;;
27833;SDS011;15200;50.570;7.244;2023-07-13T14:20:22;3.75;;;0.88;;
27833;SDS011;15200;50.570;7.244;2023-07-13T14:22:51;1.52;;;0.70;;
27833;SDS011;15200;50.570;7.244;2023-07-13T14:25:18;3.55;;;0.72;;
27833;SDS011;15200;50.570;7.244;2023-07-13T14:27:47;3.00;;;0.80;;
27833;SDS011;15200;50.570;7.244;2023-07-13T14:30:17;2.60;;;0.93;;
27833;SDS011;15200;50.570;7.244;2023-07-13T14:32:44;3.08;;;0.70;;
27833;SDS011;15200;50.570;7.244;2023-07-13T14:35:12;2.30;;;0.70;;
27833;SDS011;15200;50.570;7.244;2023-07-13T14:37:40;1.82;;;1.00;;
27833;SDS011;15200;50.570;7.244;2023-07-13T14:40:14;1.20;;;0.60;;
27833;SDS011;15200;50.570;7.244;2023-07-13T14:42:42;1.40;;;0.68;;
27833;SDS011;15200;50.570;7.244;2023-07-13T14:45:18;2.55;;;0.93;;
27833;SDS011;15200;50.570;7.244;2023-07-13T14:47:41;3.72;;;0.88;;
27833;SDS011;15200;50.570;7.244;2023-07-13T14:50:14;3.47;;;1.12;;
27833;SDS011;15200;50.570;7.244;2023-07-13T14:52:38;2.58;;;1.10;;
27833;SDS011;15200;50.570;7.244;2023-07-13T14:55:12;2.37;;;0.90;;
27833;SDS011;15200;50.570;7.244;2023-07-13T14:57:40;3.72;;;0.65;;
27833;SDS011;15200;50.570;7.244;2023-07-13T15:00:17;2.42;;;0.70;;
27833;SDS011;15200;50.570;7.244;2023-07-13T15:02:46;1.82;;;0.65;;
27833;SDS011;15200;50.570;7.244;2023-07-13T15:05:17;1.60;;;0.68;;
27833;SDS011;15200;50.570;7.244;2023-07-13T15:07:45;1.27;;;0.78;;
27833;SDS011;15200;50.570;7.244;2023-07-13T15:10:16;3.22;;;0.70;;
27833;SDS011;15200;50.570;7.244;2023-07-13T15:12:43;2.90;;;0.70;;
27833;SDS011;15200;50.570;7.244;2023-07-13T15:15:11;2.05;;;0.70;;